createdAt,value
2018-11-11T00:00:36.761Z,999.37
2018-11-11T00:01:36.773Z,999.39
2018-11-11T00:03:29.686Z,999.37
2018-11-11T00:04:29.691Z,999.35
2018-11-11T00:06:23.103Z,999.37
2018-11-11T00:07:23.108Z,999.36
2018-11-11T00:09:16.014Z,999.42
2018-11-11T00:10:16.028Z,999.42
2018-11-11T00:12:09.434Z,999.48
2018-11-11T00:13:09.445Z,999.47
2018-11-11T00:15:02.349Z,999.52
2018-11-11T00:16:02.364Z,999.55
2018-11-11T00:17:55.282Z,999.56
2018-11-11T00:18:55.284Z,999.57
2018-11-11T00:20:48.685Z,999.54
2018-11-11T00:21:48.773Z,999.50
2018-11-11T00:23:42.109Z,999.54
2018-11-11T00:24:42.118Z,999.54
2018-11-11T00:26:35.523Z,999.50
2018-11-11T00:27:35.537Z,999.53
2018-11-11T00:29:28.441Z,999.54
2018-11-11T00:30:28.458Z,999.48
2018-11-11T00:32:21.862Z,999.48
2018-11-11T00:33:21.870Z,999.42
2018-11-11T00:35:15.269Z,999.37
2018-11-11T00:36:15.285Z,999.37
2018-11-11T00:38:08.701Z,999.28
2018-11-11T00:39:08.712Z,999.32
2018-11-11T00:41:02.114Z,999.29
2018-11-11T00:42:02.129Z,999.33
2018-11-11T00:43:55.540Z,999.25
2018-11-11T00:44:55.550Z,999.26
2018-11-11T00:46:48.952Z,999.23
2018-11-11T00:47:48.959Z,999.24
2018-11-11T00:49:42.370Z,999.18
2018-11-11T00:50:42.388Z,999.19
2018-11-11T00:52:35.795Z,999.23
2018-11-11T00:53:35.804Z,999.23
2018-11-11T00:55:28.711Z,999.24
2018-11-11T00:56:28.725Z,999.24
2018-11-11T00:58:22.133Z,999.23
2018-11-11T00:59:22.142Z,999.22
2018-11-11T01:01:15.539Z,999.24
2018-11-11T01:02:15.557Z,999.20
2018-11-11T01:04:08.511Z,999.28
2018-11-11T01:05:08.478Z,999.30
2018-11-11T01:07:01.390Z,999.31
2018-11-11T01:08:01.398Z,999.32
2018-11-11T01:09:54.307Z,999.31
2018-11-11T01:10:54.319Z,999.32
2018-11-11T01:12:47.231Z,999.32
2018-11-11T01:13:47.237Z,999.30
2018-11-11T01:15:40.638Z,999.35
2018-11-11T01:16:40.653Z,999.31
2018-11-11T01:18:35.063Z,999.31
2018-11-11T01:19:35.069Z,999.28
2018-11-11T01:21:27.976Z,999.26
2018-11-11T01:22:27.990Z,999.27
2018-11-11T01:24:21.396Z,999.22
2018-11-11T01:25:21.404Z,999.21
2018-11-11T01:27:14.816Z,999.21
2018-11-11T01:28:14.822Z,999.21
2018-11-11T01:30:07.727Z,999.25
2018-11-11T01:31:07.743Z,999.26
2018-11-11T01:33:00.654Z,999.29
2018-11-11T01:34:00.663Z,999.31
2018-11-11T01:35:53.570Z,999.27
2018-11-11T01:36:53.584Z,999.28
2018-11-11T01:38:46.995Z,999.27
2018-11-11T01:39:47.004Z,999.27
2018-11-11T01:41:40.403Z,999.32
2018-11-11T01:42:40.416Z,999.30
2018-11-11T01:44:33.825Z,999.31
2018-11-11T01:45:33.835Z,999.34
2018-11-11T01:47:27.235Z,999.35
2018-11-11T01:48:27.245Z,999.31
2018-11-11T01:50:20.654Z,999.30
2018-11-11T01:51:20.714Z,999.30
2018-11-11T01:53:14.096Z,999.29
2018-11-11T01:54:14.108Z,999.25
2018-11-11T01:56:07.515Z,999.30
2018-11-11T01:57:07.514Z,999.35
2018-11-11T01:59:00.456Z,999.38
2018-11-11T02:00:00.485Z,999.36
2018-11-11T02:01:53.847Z,999.35
2018-11-11T02:02:53.894Z,999.42
2018-11-11T02:04:46.817Z,999.43
2018-11-11T02:05:46.780Z,999.46
2018-11-11T02:07:40.277Z,999.42
2018-11-11T02:08:40.190Z,999.40
2018-11-11T02:10:33.585Z,999.40
2018-11-11T02:11:33.618Z,999.40
2018-11-11T02:13:27.096Z,999.49
2018-11-11T02:14:27.031Z,999.53
2018-11-11T02:16:20.424Z,999.58
2018-11-11T02:17:20.444Z,999.57
2018-11-11T02:19:13.867Z,999.59
2018-11-11T02:20:14.390Z,999.62
2018-11-11T02:22:07.222Z,999.61
2018-11-11T02:23:07.239Z,999.63
2018-11-11T02:25:00.214Z,999.61
2018-11-11T02:26:00.221Z,999.61
2018-11-11T02:27:53.069Z,999.58
2018-11-11T02:28:53.075Z,999.60
2018-11-11T02:30:46.472Z,999.54
2018-11-11T02:31:46.489Z,999.55
2018-11-11T02:33:39.894Z,999.55
2018-11-11T02:34:39.901Z,999.53
2018-11-11T02:36:32.803Z,999.49
2018-11-11T02:37:32.850Z,999.39
2018-11-11T02:39:26.226Z,999.36
2018-11-11T02:40:26.235Z,999.34
2018-11-11T02:42:19.140Z,999.38
2018-11-11T02:43:19.155Z,999.41
2018-11-11T02:45:12.559Z,999.39
2018-11-11T02:46:12.570Z,999.40
2018-11-11T02:48:05.485Z,999.41
2018-11-11T02:49:05.488Z,999.38
2018-11-11T02:50:58.889Z,999.36
2018-11-11T02:51:58.903Z,999.38
2018-11-11T02:53:51.816Z,999.40
2018-11-11T02:54:51.824Z,999.40
2018-11-11T02:56:44.726Z,999.38
2018-11-11T02:57:44.740Z,999.40
2018-11-11T02:59:37.736Z,999.41
2018-11-11T03:00:37.662Z,999.44
2018-11-11T03:02:31.060Z,999.39
2018-11-11T03:03:31.075Z,999.40
2018-11-11T03:05:23.985Z,999.31
2018-11-11T03:06:23.996Z,999.25
2018-11-11T03:08:17.408Z,999.26
2018-11-11T03:09:17.410Z,999.22
2018-11-11T03:11:10.310Z,999.30
2018-11-11T03:12:10.327Z,999.30
2018-11-11T03:14:03.744Z,999.32
2018-11-11T03:15:03.755Z,999.29
2018-11-11T03:16:56.655Z,999.27
2018-11-11T03:17:56.669Z,999.37
2018-11-11T03:19:50.071Z,999.36
2018-11-11T03:20:50.082Z,999.37
2018-11-11T03:22:42.987Z,999.35
2018-11-11T03:23:43.002Z,999.29
2018-11-11T03:25:35.913Z,999.33
2018-11-11T03:26:35.924Z,999.30
2018-11-11T03:28:28.835Z,999.29
2018-11-11T03:29:28.840Z,999.25
2018-11-11T03:31:21.743Z,999.24
2018-11-11T03:32:21.758Z,999.28
2018-11-11T03:34:14.672Z,999.35
2018-11-11T03:35:14.678Z,999.35
2018-11-11T03:37:08.090Z,999.39
2018-11-11T03:38:08.104Z,999.37
2018-11-11T03:40:01.512Z,999.40
2018-11-11T03:41:01.516Z,999.39
2018-11-11T03:42:54.420Z,999.35
2018-11-11T03:43:54.434Z,999.43
2018-11-11T03:45:47.839Z,999.34
2018-11-11T03:46:47.847Z,999.35
2018-11-11T03:48:41.252Z,999.34
2018-11-11T03:49:41.260Z,999.40
2018-11-11T03:51:34.667Z,999.40
2018-11-11T03:52:34.681Z,999.39
2018-11-11T03:54:28.084Z,999.45
2018-11-11T03:55:28.091Z,999.46
2018-11-11T03:57:21.491Z,999.46
2018-11-11T03:58:21.510Z,999.48
2018-11-11T04:00:14.413Z,999.51
2018-11-11T04:01:14.419Z,999.53
2018-11-11T04:03:07.817Z,999.55
2018-11-11T04:04:07.830Z,999.50
2018-11-11T04:06:00.755Z,999.51
2018-11-11T04:07:00.758Z,999.54
2018-11-11T04:08:54.163Z,999.53
2018-11-11T04:09:54.173Z,999.54
2018-11-11T04:11:47.569Z,999.51
2018-11-11T04:12:47.600Z,999.48
2018-11-11T04:14:41.001Z,999.43
2018-11-11T04:15:41.007Z,999.45
2018-11-11T04:17:34.411Z,999.36
2018-11-11T04:18:34.427Z,999.34
2018-11-11T04:20:27.832Z,999.29
2018-11-11T04:21:27.840Z,999.35
2018-11-11T04:23:20.762Z,999.36
2018-11-11T04:24:20.780Z,999.40
2018-11-11T04:26:14.184Z,999.38
2018-11-11T04:27:14.191Z,999.46
2018-11-11T04:29:07.593Z,999.46
2018-11-11T04:30:07.601Z,999.50
2018-11-11T04:32:00.819Z,999.48
2018-11-11T04:33:00.520Z,999.48
2018-11-11T04:34:53.930Z,999.43
2018-11-11T04:35:53.939Z,999.41
2018-11-11T04:37:46.844Z,999.42
2018-11-11T04:38:46.860Z,999.48
2018-11-11T04:40:40.261Z,999.45
2018-11-11T04:41:40.269Z,999.44
2018-11-11T04:43:33.669Z,999.40
2018-11-11T04:44:33.684Z,999.39
2018-11-11T04:46:27.114Z,999.42
2018-11-11T04:47:27.102Z,999.45
2018-11-11T04:49:20.502Z,999.49
2018-11-11T04:50:20.511Z,999.53
2018-11-11T04:52:13.905Z,999.59
2018-11-11T04:53:13.926Z,999.55
2018-11-11T04:55:06.849Z,999.53
2018-11-11T04:56:06.845Z,999.52
2018-11-11T04:58:00.242Z,999.49
2018-11-11T04:59:00.273Z,999.46
2018-11-11T05:00:53.168Z,999.43
2018-11-11T05:01:53.172Z,999.44
2018-11-11T05:03:46.084Z,999.45
2018-11-11T05:04:46.260Z,999.50
2018-11-11T05:06:39.019Z,999.51
2018-11-11T05:07:39.019Z,999.45
2018-11-11T05:09:31.929Z,999.47
2018-11-11T05:10:31.937Z,999.47
2018-11-11T05:12:25.338Z,999.55
2018-11-11T05:13:25.353Z,999.52
2018-11-11T05:15:18.265Z,999.51
2018-11-11T05:16:18.270Z,999.50
2018-11-11T05:18:11.175Z,999.49
2018-11-11T05:19:11.192Z,999.52
2018-11-11T05:21:04.605Z,999.54
2018-11-11T05:22:04.665Z,999.59
2018-11-11T05:23:57.520Z,999.63
2018-11-11T05:24:57.535Z,999.66
2018-11-11T05:26:50.940Z,999.67
2018-11-11T05:27:50.948Z,999.64
2018-11-11T05:29:44.352Z,999.63
2018-11-11T05:30:44.373Z,999.62
2018-11-11T05:32:37.757Z,999.62
2018-11-11T05:33:37.773Z,999.65
2018-11-11T05:35:31.183Z,999.65
2018-11-11T05:36:31.194Z,999.67
2018-11-11T05:38:24.097Z,999.66
2018-11-11T05:39:24.108Z,999.67
2018-11-11T05:41:17.020Z,999.62
2018-11-11T05:42:17.028Z,999.68
2018-11-11T05:44:10.425Z,999.63
2018-11-11T05:45:10.448Z,999.66
2018-11-11T05:47:03.844Z,999.71
2018-11-11T05:48:03.854Z,999.72
2018-11-11T05:49:56.773Z,999.72
2018-11-11T05:50:56.776Z,999.77
2018-11-11T05:52:49.683Z,999.78
2018-11-11T05:53:49.698Z,999.82
2018-11-11T05:55:43.108Z,999.77
2018-11-11T05:56:43.113Z,999.73
2018-11-11T05:58:36.023Z,999.72
2018-11-11T05:59:36.034Z,999.78
2018-11-11T06:01:28.945Z,999.85
2018-11-11T06:02:28.954Z,999.85
2018-11-11T06:04:22.353Z,999.83
2018-11-11T06:05:22.368Z,999.90
2018-11-11T06:07:15.279Z,999.89
2018-11-11T06:08:15.287Z,999.88
2018-11-11T06:10:08.701Z,999.94
2018-11-11T06:11:08.711Z,999.98
2018-11-11T06:13:01.614Z,999.94
2018-11-11T06:14:01.627Z,999.95
2018-11-11T06:15:55.033Z,999.97
2018-11-11T06:16:55.043Z,999.99
2018-11-11T06:18:47.950Z,999.99
2018-11-11T06:19:47.963Z,999.95
2018-11-11T06:21:40.879Z,999.94
2018-11-11T06:22:40.886Z,999.97
2018-11-11T06:24:34.285Z,999.94
2018-11-11T06:25:34.298Z,999.97
2018-11-11T06:27:27.786Z,1000.00
2018-11-11T06:28:27.725Z,1000.00
2018-11-11T06:30:20.632Z,1000.00
2018-11-11T06:31:20.640Z,999.99
2018-11-11T06:33:14.042Z,999.94
2018-11-11T06:34:14.097Z,999.93
2018-11-11T06:36:07.463Z,999.97
2018-11-11T06:37:07.472Z,1000.01
2018-11-11T06:39:01.371Z,1000.01
2018-11-11T06:40:01.385Z,1000.04
2018-11-11T06:41:54.792Z,1000.04
2018-11-11T06:42:54.801Z,1000.00
2018-11-11T06:44:48.703Z,1000.01
2018-11-11T06:45:48.714Z,999.98
2018-11-11T06:47:42.134Z,999.99
2018-11-11T06:48:42.144Z,999.99
2018-11-11T06:50:35.563Z,999.99
2018-11-11T06:51:35.572Z,999.96
2018-11-11T06:53:28.985Z,999.94
2018-11-11T06:54:28.997Z,999.96
2018-11-11T06:56:22.400Z,999.98
2018-11-11T06:57:22.493Z,999.96
2018-11-11T06:59:15.810Z,1000.04
2018-11-11T07:00:15.824Z,1000.04
2018-11-11T07:02:09.230Z,1000.00
2018-11-11T07:03:09.239Z,1000.07
2018-11-11T07:05:02.650Z,1000.10
2018-11-11T07:06:02.667Z,1000.12
2018-11-11T07:07:56.076Z,1000.18
2018-11-11T07:08:56.088Z,1000.20
2018-11-11T07:10:49.496Z,1000.20
2018-11-11T07:11:49.502Z,1000.19
2018-11-11T07:13:42.402Z,1000.21
2018-11-11T07:14:42.417Z,1000.22
2018-11-11T07:16:35.333Z,1000.21
2018-11-11T07:17:35.336Z,1000.22
2018-11-11T07:19:28.740Z,1000.21
2018-11-11T07:20:28.752Z,1000.19
2018-11-11T07:22:21.662Z,1000.22
2018-11-11T07:23:21.675Z,1000.19
2018-11-11T07:25:14.574Z,1000.16
2018-11-11T07:26:14.590Z,1000.13
2018-11-11T07:28:07.505Z,1000.11
2018-11-11T07:29:07.507Z,1000.18
2018-11-11T07:31:00.860Z,1000.18
2018-11-11T07:32:00.428Z,1000.21
2018-11-11T07:33:53.826Z,1000.18
2018-11-11T07:34:53.845Z,1000.23
2018-11-11T07:36:47.246Z,1000.19
2018-11-11T07:37:47.256Z,1000.25
2018-11-11T07:39:40.159Z,1000.25
2018-11-11T07:40:40.175Z,1000.21
2018-11-11T07:42:33.667Z,1000.16
2018-11-11T07:43:33.591Z,1000.21
2018-11-11T07:45:26.991Z,1000.22
2018-11-11T07:46:27.008Z,1000.22
2018-11-11T07:48:20.414Z,1000.25
2018-11-11T07:49:20.424Z,1000.25
2018-11-11T07:51:13.830Z,1000.28
2018-11-11T07:52:13.839Z,1000.33
2018-11-11T07:54:07.238Z,1000.33
2018-11-11T07:55:07.359Z,1000.36
2018-11-11T07:57:00.956Z,1000.38
2018-11-11T07:58:00.175Z,1000.44
2018-11-11T07:59:53.100Z,1000.49
2018-11-11T08:00:53.117Z,1000.51
2018-11-11T08:02:46.527Z,1000.53
2018-11-11T08:03:46.573Z,1000.53
2018-11-11T08:05:39.935Z,1000.56
2018-11-11T08:06:40.039Z,1000.55
2018-11-11T08:08:32.867Z,1000.61
2018-11-11T08:09:32.873Z,1000.61
2018-11-11T08:11:26.678Z,1000.66
2018-11-11T08:12:26.290Z,1000.68
2018-11-11T08:14:19.692Z,1000.71
2018-11-11T08:15:19.707Z,1000.66
2018-11-11T08:17:13.120Z,1000.75
2018-11-11T08:18:13.125Z,1000.75
2018-11-11T08:20:06.030Z,1000.74
2018-11-11T08:21:06.048Z,1000.72
2018-11-11T08:22:58.964Z,1000.73
2018-11-11T08:23:58.969Z,1000.72
2018-11-11T08:25:52.369Z,1000.71
2018-11-11T08:26:52.389Z,1000.72
2018-11-11T08:28:45.298Z,1000.82
2018-11-11T08:29:45.307Z,1000.79
2018-11-11T08:31:38.719Z,1000.86
2018-11-11T08:32:38.728Z,1000.88
2018-11-11T08:34:31.633Z,1000.89
2018-11-11T08:35:31.650Z,1000.92
2018-11-11T08:37:24.562Z,1000.92
2018-11-11T08:38:24.572Z,1000.96
2018-11-11T08:40:17.541Z,1000.88
2018-11-11T08:41:17.493Z,1000.94
2018-11-11T08:43:10.406Z,1000.93
2018-11-11T08:44:10.417Z,1000.92
2018-11-11T08:46:03.321Z,1000.93
2018-11-11T08:47:03.337Z,1000.91
2018-11-11T08:48:56.262Z,1000.92
2018-11-11T08:49:56.267Z,1000.94
2018-11-11T08:51:49.683Z,1000.91
2018-11-11T08:52:49.685Z,1000.91
2018-11-11T08:54:43.086Z,1000.99
2018-11-11T08:55:43.103Z,1000.91
2018-11-11T08:57:36.511Z,1000.92
2018-11-11T08:58:36.522Z,1000.99
2018-11-11T09:00:29.427Z,1001.04
2018-11-11T09:01:29.444Z,1000.99
2018-11-11T09:03:22.851Z,1001.07
2018-11-11T09:04:22.914Z,1001.03
2018-11-11T09:06:15.795Z,1001.03
2018-11-11T09:07:15.808Z,1001.04
2018-11-11T09:09:09.226Z,1001.02
2018-11-11T09:10:09.236Z,1001.03
2018-11-11T09:12:02.189Z,1001.05
2018-11-11T09:13:02.183Z,1001.08
2018-11-11T09:14:55.093Z,1001.12
2018-11-11T09:15:55.103Z,1001.13
2018-11-11T09:17:48.521Z,1001.09
2018-11-11T09:18:48.526Z,1001.14
2018-11-11T09:20:41.930Z,1001.19
2018-11-11T09:21:42.065Z,1001.15
2018-11-11T09:23:35.357Z,1001.18
2018-11-11T09:24:35.361Z,1001.14
2018-11-11T09:26:28.837Z,1001.16
2018-11-11T09:27:28.791Z,1001.18
2018-11-11T09:29:22.261Z,1001.21
2018-11-11T09:30:22.315Z,1001.21
2018-11-11T09:32:15.128Z,1001.21
2018-11-11T09:33:15.217Z,1001.21
2018-11-11T09:35:08.098Z,1001.25
2018-11-11T09:36:08.056Z,1001.29
2018-11-11T09:38:01.470Z,1001.30
2018-11-11T09:39:01.598Z,1001.34
2018-11-11T09:40:54.878Z,1001.35
2018-11-11T09:41:54.895Z,1001.38
2018-11-11T09:43:47.822Z,1001.43
2018-11-11T09:44:47.853Z,1001.42
2018-11-11T09:46:40.739Z,1001.42
2018-11-11T09:47:40.770Z,1001.43
2018-11-11T09:49:33.675Z,1001.49
2018-11-11T09:50:33.681Z,1001.45
2018-11-11T09:52:26.645Z,1001.50
2018-11-11T09:53:26.608Z,1001.46
2018-11-11T09:55:19.517Z,1001.48
2018-11-11T09:56:19.535Z,1001.47
2018-11-11T09:58:12.941Z,1001.55
2018-11-11T09:59:12.956Z,1001.51
2018-11-11T10:01:06.359Z,1001.55
2018-11-11T10:02:06.374Z,1001.47
2018-11-11T10:03:59.782Z,1001.39
2018-11-11T10:04:59.861Z,1001.46
2018-11-11T10:06:52.716Z,1001.43
2018-11-11T10:07:52.716Z,1001.43
2018-11-11T10:09:45.642Z,1001.46
2018-11-11T10:10:45.643Z,1001.37
2018-11-11T10:12:39.206Z,1001.44
2018-11-11T10:13:39.066Z,1001.44
2018-11-11T10:15:32.478Z,1001.50
2018-11-11T10:16:32.484Z,1001.47
2018-11-11T10:18:25.507Z,1001.46
2018-11-11T10:19:25.521Z,1001.45
2018-11-11T10:21:19.436Z,1001.46
2018-11-11T10:22:19.454Z,1001.50
2018-11-11T10:24:12.868Z,1001.42
2018-11-11T10:25:12.880Z,1001.40
2018-11-11T10:27:05.844Z,1001.40
2018-11-11T10:28:05.812Z,1001.34
2018-11-11T10:29:58.725Z,1001.34
2018-11-11T10:30:58.737Z,1001.32
2018-11-11T10:32:52.153Z,1001.31
2018-11-11T10:33:52.256Z,1001.24
2018-11-11T10:35:46.777Z,1001.19
2018-11-11T10:36:46.787Z,1001.28
2018-11-11T10:38:39.717Z,1001.26
2018-11-11T10:39:39.715Z,1001.24
2018-11-11T10:41:33.121Z,1001.21
2018-11-11T10:42:33.135Z,1001.22
2018-11-11T10:44:26.592Z,1001.26
2018-11-11T10:45:26.559Z,1001.27
2018-11-11T10:47:19.470Z,1001.22
2018-11-11T10:48:19.487Z,1001.36
2018-11-11T10:50:12.404Z,1001.34
2018-11-11T10:51:12.414Z,1001.30
2018-11-11T10:53:05.331Z,1001.38
2018-11-11T10:54:05.350Z,1001.38
2018-11-11T10:55:59.754Z,1001.39
2018-11-11T10:56:59.801Z,1001.32
2018-11-11T10:58:52.818Z,1001.33
2018-11-11T10:59:52.690Z,1001.36
2018-11-11T11:01:46.113Z,1001.35
2018-11-11T11:02:46.122Z,1001.25
2018-11-11T11:04:39.540Z,1001.34
2018-11-11T11:05:39.551Z,1001.26
2018-11-11T11:07:32.460Z,1001.39
2018-11-11T11:08:32.482Z,1001.36
2018-11-11T11:10:25.891Z,1001.35
2018-11-11T11:11:25.899Z,1001.46
2018-11-11T11:13:18.832Z,1001.47
2018-11-11T11:14:18.836Z,1001.42
2018-11-11T11:16:11.743Z,1001.43
2018-11-11T11:17:11.755Z,1001.40
2018-11-11T11:19:04.663Z,1001.45
2018-11-11T11:20:04.681Z,1001.45
2018-11-11T11:21:58.096Z,1001.52
2018-11-11T11:22:58.122Z,1001.62
2018-11-11T11:24:51.029Z,1001.69
2018-11-11T11:25:51.124Z,1001.64
2018-11-11T11:27:43.945Z,1001.74
2018-11-11T11:28:43.963Z,1001.72
2018-11-11T11:30:36.883Z,1001.77
2018-11-11T11:31:36.949Z,1001.80
2018-11-11T11:33:29.799Z,1001.87
2018-11-11T11:34:30.081Z,1001.86
2018-11-11T11:36:23.227Z,1001.99
2018-11-11T11:37:23.244Z,1002.01
2018-11-11T11:39:16.149Z,1002.03
2018-11-11T11:40:16.166Z,1002.02
2018-11-11T11:42:09.098Z,1002.06
2018-11-11T11:43:09.094Z,1002.13
2018-11-11T11:45:02.004Z,1002.05
2018-11-11T11:46:02.018Z,1002.07
2018-11-11T11:47:55.431Z,1002.07
2018-11-11T11:48:55.442Z,1002.10
2018-11-11T11:50:48.868Z,1002.08
2018-11-11T11:51:48.915Z,1002.10
2018-11-11T11:53:41.779Z,1002.07
2018-11-11T11:54:41.798Z,1002.08
2018-11-11T11:56:34.712Z,1002.12
2018-11-11T11:57:34.730Z,1002.14
2018-11-11T11:59:27.638Z,1002.14
2018-11-11T12:00:27.656Z,1002.17
2018-11-11T12:02:20.628Z,1002.18
2018-11-11T12:03:20.584Z,1002.19
2018-11-11T12:05:13.987Z,1002.22
2018-11-11T12:06:14.006Z,1002.16
2018-11-11T12:08:06.926Z,1002.27
2018-11-11T12:09:06.950Z,1002.27
2018-11-11T12:11:01.359Z,1002.27
2018-11-11T12:12:00.360Z,1002.31
2018-11-11T12:13:53.270Z,1002.32
2018-11-11T12:14:53.281Z,1002.37
2018-11-11T12:16:46.299Z,1002.36
2018-11-11T12:17:46.209Z,1002.33
2018-11-11T12:19:39.118Z,1002.38
2018-11-11T12:20:39.201Z,1002.42
2018-11-11T12:22:32.578Z,1002.35
2018-11-11T12:23:32.589Z,1002.37
2018-11-11T12:25:25.498Z,1002.29
2018-11-11T12:26:25.516Z,1002.28
2018-11-11T12:28:18.457Z,1002.28
2018-11-11T12:29:18.444Z,1002.25
2018-11-11T12:31:11.353Z,1002.19
2018-11-11T12:32:11.368Z,1002.19
2018-11-11T12:34:04.285Z,1002.16
2018-11-11T12:35:04.321Z,1002.21
2018-11-11T12:36:58.221Z,1002.23
2018-11-11T12:37:58.219Z,1002.22
2018-11-11T12:39:51.762Z,1002.19
2018-11-11T12:40:51.645Z,1002.23
2018-11-11T12:42:45.052Z,1002.28
2018-11-11T12:43:45.065Z,1002.21
2018-11-11T12:45:37.975Z,1002.23
2018-11-11T12:46:38.001Z,1002.29
2018-11-11T12:48:30.913Z,1002.26
2018-11-11T12:49:30.924Z,1002.20
2018-11-11T12:51:24.332Z,1002.20
2018-11-11T12:52:24.349Z,1002.18
2018-11-11T12:54:17.273Z,1002.16
2018-11-11T12:55:17.294Z,1002.18
2018-11-11T12:57:10.197Z,1002.14
2018-11-11T12:58:10.209Z,1002.17
2018-11-11T13:00:03.134Z,1002.16
2018-11-11T13:01:03.141Z,1002.17
2018-11-11T13:02:56.551Z,1002.18
2018-11-11T13:03:56.560Z,1002.15
2018-11-11T13:05:49.474Z,1002.10
2018-11-11T13:06:49.497Z,1002.03
2018-11-11T13:08:42.406Z,1002.05
2018-11-11T13:09:42.420Z,1002.08
2018-11-11T13:11:35.450Z,1002.23
2018-11-11T13:12:35.345Z,1002.32
2018-11-11T13:14:28.262Z,1002.37
2018-11-11T13:15:28.274Z,1002.30
2018-11-11T13:17:21.181Z,1002.11
2018-11-11T13:18:21.203Z,1002.04
2018-11-11T13:20:14.120Z,1002.15
2018-11-11T13:21:14.128Z,1002.19
2018-11-11T13:23:07.047Z,1002.15
2018-11-11T13:24:07.058Z,1002.17
2018-11-11T13:25:59.969Z,1002.26
2018-11-11T13:26:59.985Z,1002.25
2018-11-11T13:28:52.898Z,1002.19
2018-11-11T13:29:52.910Z,1002.18
2018-11-11T13:31:45.873Z,1002.20
2018-11-11T13:32:45.841Z,1002.23
2018-11-11T13:34:38.765Z,1002.26
2018-11-11T13:35:38.810Z,1002.26
2018-11-11T13:37:31.689Z,1002.28
2018-11-11T13:38:31.734Z,1002.25
2018-11-11T13:40:24.623Z,1002.31
2018-11-11T13:41:24.635Z,1002.33
2018-11-11T13:43:17.585Z,1002.34
2018-11-11T13:44:17.564Z,1002.33
2018-11-11T13:46:10.510Z,1002.33
2018-11-11T13:47:10.488Z,1002.30
2018-11-11T13:49:03.483Z,1002.30
2018-11-11T13:50:03.496Z,1002.31
2018-11-11T13:51:56.353Z,1002.33
2018-11-11T13:52:56.355Z,1002.38
2018-11-11T13:54:49.288Z,1002.42
2018-11-11T13:55:49.371Z,1002.46
2018-11-11T13:57:42.223Z,1002.43
2018-11-11T13:58:42.225Z,1002.47
2018-11-11T14:00:35.143Z,1002.48
2018-11-11T14:01:35.165Z,1002.49
2018-11-11T14:03:28.110Z,1002.60
2018-11-11T14:04:28.082Z,1002.61
2018-11-11T14:06:21.486Z,1002.63
2018-11-11T14:07:21.504Z,1002.65
2018-11-11T14:09:14.510Z,1002.62
2018-11-11T14:10:14.430Z,1002.67
2018-11-11T14:12:07.342Z,1002.67
2018-11-11T14:13:07.435Z,1002.69
2018-11-11T14:15:00.783Z,1002.65
2018-11-11T14:16:00.295Z,1002.64
2018-11-11T14:17:53.213Z,1002.60
2018-11-11T14:18:53.401Z,1002.60
2018-11-11T14:20:46.131Z,1002.61
2018-11-11T14:21:46.154Z,1002.62
2018-11-11T14:23:39.059Z,1002.65
2018-11-11T14:24:39.122Z,1002.67
2018-11-11T14:26:32.070Z,1002.70
2018-11-11T14:27:31.997Z,1002.73
2018-11-11T14:29:24.911Z,1002.75
2018-11-11T14:30:24.923Z,1002.76
2018-11-11T14:32:17.866Z,1002.79
2018-11-11T14:33:17.849Z,1002.73
2018-11-11T14:35:11.259Z,1002.71
2018-11-11T14:36:11.273Z,1002.72
2018-11-11T14:38:04.186Z,1002.71
2018-11-11T14:39:04.195Z,1002.67
2018-11-11T14:40:57.115Z,1002.65
2018-11-11T14:41:57.125Z,1002.62
2018-11-11T14:43:50.043Z,1002.63
2018-11-11T14:44:50.053Z,1002.56
2018-11-11T14:46:42.967Z,1002.54
2018-11-11T14:47:43.035Z,1002.49
2018-11-11T14:49:35.894Z,1002.53
2018-11-11T14:50:35.904Z,1002.46
2018-11-11T14:52:28.855Z,1002.39
2018-11-11T14:53:28.828Z,1002.44
2018-11-11T14:55:21.804Z,1002.34
2018-11-11T14:56:21.759Z,1002.39
2018-11-11T14:58:14.722Z,1002.57
2018-11-11T14:59:14.683Z,1002.66
2018-11-11T15:01:07.590Z,1002.67
2018-11-11T15:02:07.607Z,1002.73
2018-11-11T15:04:00.574Z,1002.74
2018-11-11T15:05:00.529Z,1002.78
2018-11-11T15:06:53.438Z,1002.73
2018-11-11T15:07:53.510Z,1002.68
2018-11-11T15:09:46.372Z,1002.76
2018-11-11T15:10:46.382Z,1002.75
2018-11-11T15:12:39.296Z,1002.81
2018-11-11T15:13:39.305Z,1002.82
2018-11-11T15:15:32.223Z,1002.83
2018-11-11T15:16:32.233Z,1002.86
2018-11-11T15:18:25.138Z,1002.95
2018-11-11T15:19:25.258Z,1002.94
2018-11-11T15:21:18.070Z,1003.04
2018-11-11T15:22:18.080Z,1003.04
2018-11-11T15:24:10.999Z,1003.10
2018-11-11T15:25:11.038Z,1003.11
2018-11-11T15:27:03.912Z,1003.14
2018-11-11T15:28:03.929Z,1003.13
2018-11-11T15:29:56.844Z,1003.21
2018-11-11T15:30:56.940Z,1003.20
2018-11-11T15:32:49.759Z,1003.23
2018-11-11T15:33:49.776Z,1003.28
2018-11-11T15:35:42.693Z,1003.24
2018-11-11T15:36:42.701Z,1003.36
2018-11-11T15:38:35.607Z,1003.38
2018-11-11T15:39:35.626Z,1003.37
2018-11-11T15:41:28.563Z,1003.41
2018-11-11T15:42:28.711Z,1003.41
2018-11-11T15:44:21.453Z,1003.36
2018-11-11T15:45:21.472Z,1003.27
2018-11-11T15:47:14.384Z,1003.15
2018-11-11T15:48:14.394Z,1003.11
2018-11-11T15:50:07.314Z,1003.02
2018-11-11T15:51:07.323Z,1003.10
2018-11-11T15:53:00.755Z,1003.17
2018-11-11T15:54:00.247Z,1003.22
2018-11-11T15:55:53.158Z,1003.23
2018-11-11T15:56:53.168Z,1003.25
2018-11-11T15:58:46.072Z,1003.26
2018-11-11T15:59:46.093Z,1003.38
2018-11-11T16:01:39.005Z,1003.42
2018-11-11T16:02:39.014Z,1003.49
2018-11-11T16:04:31.921Z,1003.57
2018-11-11T16:05:31.937Z,1003.53
2018-11-11T16:07:24.851Z,1003.46
2018-11-11T16:08:24.870Z,1003.49
2018-11-11T16:10:17.762Z,1003.54
2018-11-11T16:11:17.782Z,1003.56
2018-11-11T16:13:10.693Z,1003.60
2018-11-11T16:14:10.714Z,1003.61
2018-11-11T16:16:03.616Z,1003.55
2018-11-11T16:17:03.624Z,1003.62
2018-11-11T16:18:56.534Z,1003.56
2018-11-11T16:19:56.661Z,1003.54
2018-11-11T16:21:49.461Z,1003.60
2018-11-11T16:22:49.467Z,1003.56
2018-11-11T16:24:42.374Z,1003.52
2018-11-11T16:25:42.525Z,1003.51
2018-11-11T16:27:35.306Z,1003.53
2018-11-11T16:28:35.308Z,1003.60
2018-11-11T16:30:28.226Z,1003.59
2018-11-11T16:31:28.293Z,1003.62
2018-11-11T16:33:21.149Z,1003.65
2018-11-11T16:34:21.159Z,1003.65
2018-11-11T16:36:14.076Z,1003.62
2018-11-11T16:37:14.081Z,1003.68
2018-11-11T16:39:07.001Z,1003.65
2018-11-11T16:40:07.005Z,1003.74
2018-11-11T16:41:59.963Z,1003.75
2018-11-11T16:42:59.930Z,1003.75
2018-11-11T16:44:52.837Z,1003.80
2018-11-11T16:45:52.850Z,1003.81
2018-11-11T16:47:45.772Z,1003.80
2018-11-11T16:48:45.773Z,1003.72
2018-11-11T16:50:38.678Z,1003.70
2018-11-11T16:51:38.750Z,1003.68
2018-11-11T16:53:32.102Z,1003.76
2018-11-11T16:54:32.112Z,1003.75
2018-11-11T16:56:25.023Z,1003.71
2018-11-11T16:57:25.035Z,1003.73
2018-11-11T16:59:17.950Z,1003.76
2018-11-11T17:00:17.955Z,1003.80
2018-11-11T17:02:10.871Z,1003.79
2018-11-11T17:03:10.883Z,1003.83
2018-11-11T17:05:03.786Z,1003.77
2018-11-11T17:06:03.811Z,1003.73
2018-11-11T17:07:56.718Z,1003.72
2018-11-11T17:08:56.724Z,1003.70
2018-11-11T17:10:49.633Z,1003.68
2018-11-11T17:11:49.648Z,1003.67
2018-11-11T17:13:42.563Z,1003.71
2018-11-11T17:14:42.574Z,1003.68
2018-11-11T17:16:35.478Z,1003.77
2018-11-11T17:17:35.493Z,1003.79
2018-11-11T17:19:28.407Z,1003.82
2018-11-11T17:20:28.554Z,1003.86
2018-11-11T17:22:21.533Z,1003.82
2018-11-11T17:23:21.339Z,1003.81
2018-11-11T17:25:14.275Z,1003.79
2018-11-11T17:26:14.260Z,1003.74
2018-11-11T17:28:07.306Z,1003.77
2018-11-11T17:29:07.215Z,1003.86
2018-11-11T17:31:00.463Z,1003.84
2018-11-11T17:32:00.105Z,1003.82
2018-11-11T17:33:53.019Z,1003.83
2018-11-11T17:34:53.026Z,1003.81
2018-11-11T17:36:45.933Z,1003.80
2018-11-11T17:37:45.951Z,1003.74
2018-11-11T17:39:38.869Z,1003.68